This is the latest recevied weather packets stored in our database for station/object DB0HRC-6. If no packets are shown the sender has not sent any weather packets the latest 1 day(s).
| Time | Temp. | Humidity | Pressure | Rain* | Wind** | Luminosity | Snow |
|---|---|---|---|---|---|---|---|
| 1778022013 | 12.78° C | 88% | 1001.5 hPa | 0 mm | 0.45 m/s, 112° | - | - |
| 1778021113 | 13.33° C | 88% | 1001.4 hPa | 0 mm | 0.45 m/s, 135° | - | - |
| 1778020216 | 13.33° C | 88% | 1001.3 hPa | 0 mm | 0.45 m/s, 337° | - | - |
| 1778019313 | 13.33° C | 88% | 1001.3 hPa | 0 mm | 0 m/s | - | - |
| 1778018414 | 13.33° C | 88% | 1001.6 hPa | 0 mm | 0 m/s | - | - |
| 1778017513 | 13.33° C | 88% | 1001.8 hPa | 0 mm | 0 m/s | - | - |
| 1778016613 | 13.89° C | 87% | 1002.3 hPa | 0 mm | 0 m/s | - | - |
| 1778015714 | 13.89° C | 87% | 1002.6 hPa | 0 mm | 0 m/s | - | - |
| 1778014814 | 13.89° C | 86% | 1002.3 hPa | 0 mm | 0 m/s | - | - |
| 1778013914 | 14.44° C | 85% | 1002.4 hPa | 0 mm | 0 m/s | - | - |
| 1778013013 | 14.44° C | 84% | 1002.6 hPa | 0 mm | 0 m/s | - | - |
| 1778012114 | 14.44° C | 83% | 1002.6 hPa | 0 mm | 0 m/s | - | - |
| 1778011213 | 15° C | 79% | 1002.1 hPa | 0 mm | 0 m/s | - | - |
| 1778010313 | 15.56° C | 77% | 1001.8 hPa | 0 mm | 0 m/s | - | - |
| 1778009413 | 15° C | 76% | 1001.5 hPa | 0 mm | 0.45 m/s, 0° | - | - |
| 1778008513 | 15.56° C | 74% | 1001.5 hPa | 0 mm | 0.45 m/s, 337° | - | - |
| 1778007613 | 15.56° C | 74% | 1001.7 hPa | 0 mm | 0 m/s | - | - |
| 1778006713 | 15.56° C | 75% | 1001.9 hPa | 0 mm | 0 m/s | - | - |
| 1778005816 | 15.56° C | 75% | 1001.8 hPa | 0 mm | 0 m/s | - | - |
| 1778004913 | 16.11° C | 74% | 1001.8 hPa | 0 mm | 0.45 m/s, 337° | - | - |
| 1778004020 | 16.67° C | 73% | 1002.1 hPa | 0 mm | 0 m/s | - | - |
| 1778003112 | 16.67° C | 71% | 1002.4 hPa | 0 mm | 0.45 m/s, 0° | - | - |
| 1778002213 | 16.67° C | 71% | 1002.2 hPa | 0 mm | 0 m/s | - | - |
| 1778001313 | 17.22° C | 71% | 1002.3 hPa | 0 mm | 0 m/s | - | - |
| 1778000413 | 17.22° C | 70% | 1002.5 hPa | 0 mm | 0.45 m/s, 337° | - | - |
* Rain latest hour (hover to see other rain measurements)
** Current wind speed in m/s (hover to see current wind gust speed)